Latest Weather Observations for Roma

IDQ60801

Issued at 10:32 pm EST Wednesday 26 September 2018 (issued every 10 minutes, with the page automatically refreshed every 10 minutes)

About weather observations | Map of weather stations | Latest weather observations for QLD | Other Formats
Station Details ID: 043091 Name: ROMA AIRPORT Lat: -26.55 Lon: 148.77 Height: 307.38 m
Data from the previous 72 hours. | See also: Recent months at Roma
Date/Time
EST
Temp
°C
App
Temp
°C
Dew
Point
°C
Rel
Hum
%
Delta-T
°C
Wind Press
QNH
hPa
Press
MSL
hPa
Rain since
9am
mm
Dir  Spd
km/h
Gust
km/h
Spd
kts
Gust
kts
26/10:30pm 18.7 15.5 8.4 51 5.4 N 15 17 8 9 1017.5 1016.7 0.0
26/10:00pm 19.2 16.3 8.2 49 5.8 NNE 13 17 7 9 1017.3 1016.5 0.0
26/09:30pm 19.2 16.0 8.5 50 5.6 NNE 15 19 8 10 1017.2 1016.4 0.0
26/09:00pm 19.0 16.2 6.8 45 6.2 NNE 11 15 6 8 1017.2 1016.4 0.0
26/08:30pm 19.5 16.4 7.3 45 6.3 NNE 13 17 7 9 1016.9 1016.2 0.0
26/08:00pm 19.9 17.9 6.3 41 6.9 E 6 9 3 5 1016.7 1016.0 0.0
26/07:30pm 21.8 19.9 0.4 24 9.8 CALM 0 0 0 0 1016.2 1015.4 0.0
26/07:00pm 23.3 20.0 0.4 22 10.6 SW 7 9 4 5 1016.0 1015.2 0.0
26/06:30pm 23.3 19.7 0.4 22 10.6 WSW 9 13 5 7 1015.6 1014.8 0.0
26/06:00pm 26.4 21.5 -0.6 17 12.6 WSW 15 20 8 11 1015.1 1014.3 0.0
26/05:30pm 28.3 23.6 0.9 17 13.3 WSW 15 24 8 13 1014.8 1014.0 0.0
26/05:00pm 28.7 22.8 -0.5 15 13.9 WSW 20 28 11 15 1014.6 1013.8 0.0
26/04:30pm 29.1 22.9 -0.1 15 14.0 SW 22 32 12 17 1014.4 1013.6 0.0
26/04:00pm 29.8 24.8 1.3 16 14.1 WSW 17 28 9 15 1014.3 1013.5 0.0
26/03:30pm 30.2 24.7 1.6 16 14.3 WSW 20 30 11 16 1014.5 1013.7 0.0
26/03:00pm 30.1 25.3 2.4 17 14.0 W 17 33 9 18 1014.7 1013.9 0.0
26/02:30pm 29.1 22.8 1.6 17 13.6 WNW 24 33 13 18 1015.0 1014.2 0.0
26/02:00pm 29.5 25.8 4.2 20 13.1 WNW 13 20 7 11 1015.5 1014.7 0.0
26/01:30pm 28.2 25.8 6.9 26 11.5 NNW 9 19 5 10 1016.3 1015.6 0.0
26/01:00pm 27.1 23.7 6.0 26 11.1 NNW 13 22 7 12 1016.7 1016.0 0.0
26/12:30pm 26.9 23.8 7.4 29 10.5 N 13 24 7 13 1017.3 1016.5 0.0
26/12:00pm 27.7 22.7 8.1 29 10.7 NW 24 41 13 22 1018.1 1017.3 0.0
26/11:30am 26.4 22.2 8.4 32 9.9 NNW 20 33 11 18 1018.5 1017.7 0.0
26/11:00am 25.8 22.2 8.3 33 9.5 N 17 33 9 18 1019.1 1018.4 0.0
26/10:30am 24.1 20.8 9.7 40 8.0 N 17 28 9 15 1019.6 1018.9 0.0
26/10:00am 23.6 19.9 10.3 43 7.4 N 20 30 11 16 1020.0 1019.3 0.0
26/09:30am 22.2 18.4 11.0 49 6.3 N 22 32 12 17 1020.3 1019.6 0.0
26/09:00am 20.8 15.6 10.3 51 5.8 N 28 35 15 19 1020.6 1019.8 0.0
26/08:30am 20.5 15.6 11.4 56 5.1 N 28 39 15 21 1020.4 1019.7 0.0
26/08:00am 18.6 13.6 10.9 61 4.2 N 28 39 15 21 1020.3 1019.6 0.0
26/07:30am 17.4 14.0 11.2 67 3.4 NNE 20 30 11 16 1020.1 1019.4 0.0
26/07:00am 15.8 13.3 11.0 73 2.6 NNE 15 20 8 11 1019.9 1019.2 0.0
26/06:30am 14.8 12.3 11.0 78 2.0 NNE 15 20 8 11 1019.5 1018.8 0.0
26/06:00am 14.2 10.9 10.8 80 1.8 NNE 19 24 10 13 1019.2 1018.5 0.0
26/05:30am 14.4 11.1 11.0 80 1.8 NNE 19 24 10 13 1018.9 1018.1 0.0
26/05:00am 14.4 11.1 10.8 79 1.9 NNE 19 26 10 14 1018.7 1017.9 0.0
26/04:30am 14.8 11.0 11.0 78 2.0 NNE 22 28 12 15 1018.6 1017.8 0.0
26/04:00am 14.8 11.5 10.8 77 2.1 NNE 19 26 10 14 1018.5 1017.7 0.0
26/03:30am 15.2 11.9 10.8 75 2.4 NNE 19 24 10 13 1018.6 1017.8 0.0
26/03:00am 15.4 11.9 11.0 75 2.4 NNE 20 28 11 15 1018.5 1017.7 0.0
26/02:30am 15.9 12.0 10.9 72 2.7 NNE 22 32 12 17 1018.8 1018.0 0.0
26/02:00am 16.2 12.3 10.9 71 2.9 NNE 22 28 12 15 1019.3 1018.6 0.0
26/01:30am 16.6 12.7 10.9 69 3.1 NE 22 32 12 17 1019.5 1018.8 0.0
26/01:00am 16.7 13.2 10.8 68 3.2 NE 20 28 11 15 1019.7 1019.0 0.0
26/12:30am 17.0 12.7 10.6 66 3.5 NE 24 32 13 17 1019.8 1019.1 0.0
26/12:00am 17.4 12.7 10.5 64 3.7 NE 26 35 14 19 1019.9 1019.2 0.0
 
Date/Time
EST
Temp
°C
App
Temp
°C
Dew
Point
°C
Rel
Hum
%
Delta-T
°C
Wind Press
QNH
hPa
Press
MSL
hPa
Rain since
9am
mm
Dir  Spd
km/h
Gust
km/h
Spd
kts
Gust
kts
25/11:30pm 17.7 12.8 10.1 61 4.1 NE 26 35 14 19 1020.1 1019.4 0.0
25/11:00pm 17.4 13.5 9.6 60 4.1 NE 20 26 11 14 1020.2 1019.5 0.0
25/10:30pm 18.0 13.3 9.4 57 4.6 NE 24 32 13 17 1020.3 1019.6 0.0
25/10:00pm 18.8 14.4 7.6 48 5.8 ENE 20 32 11 17 1020.2 1019.5 0.0
25/09:30pm 18.3 14.8 7.1 48 5.7 E 15 17 8 9 1019.9 1019.2 0.0
25/09:00pm 19.4 14.9 6.2 42 6.6 E 19 35 10 19 1019.7 1019.0 0.0
25/08:30pm 17.2 14.3 6.4 49 5.4 N 11 13 6 7 1019.0 1018.2 0.0
25/08:00pm 18.5 15.6 6.7 46 6.0 N 11 13 6 7 1018.7 1017.9 0.0
25/07:30pm 18.9 15.3 5.0 40 6.8 N 13 15 7 8 1018.3 1017.5 0.0
25/07:00pm 20.9 18.4 4.9 35 7.9 NNE 7 9 4 5 1017.9 1017.1 0.0
25/06:30pm 21.6 17.9 4.7 33 8.4 NNE 13 15 7 8 1017.6 1016.8 0.0
25/06:00pm 22.8 19.8 3.9 29 9.3 ENE 9 15 5 8 1017.4 1016.6 0.0
25/05:30pm 24.0 21.7 2.8 25 10.4 E 4 9 2 5 1016.9 1016.2 0.0
25/05:00pm 26.5 24.4 3.7 23 11.5 N 4 9 2 5 1016.8 1016.1 0.0
25/04:30pm 27.0 24.5 4.7 24 11.5 S 7 15 4 8 1016.8 1016.1 0.0
25/04:00pm 26.4 23.8 4.2 24 11.3 ESE 7 11 4 6 1016.9 1016.2 0.0
25/03:30pm 26.7 24.2 4.5 24 11.4 NNW 7 17 4 9 1017.2 1016.4 0.0
25/03:00pm 27.0 24.1 4.7 24 11.5 SSE 9 17 5 9 1017.5 1016.7 0.0
25/02:30pm 26.6 23.8 5.0 25 11.2 SE 9 17 5 9 1017.9 1017.1 0.0
25/02:00pm 26.3 23.5 5.3 26 10.9 W 9 17 5 9 1018.5 1017.7 0.0
25/01:30pm 26.2 22.7 7.3 30 10.2 NE 15 22 8 12 1019.0 1018.2 0.0
25/01:00pm 26.5 23.4 8.9 33 9.7 NE 15 22 8 12 1019.6 1018.9 0.0
25/12:30pm 24.9 22.0 8.0 34 9.1 NNW 13 24 7 13 1020.4 1019.7 0.0
25/12:00pm 24.4 21.4 9.2 38 8.3 NNE 15 26 8 14 1021.0 1020.2 0.0
25/11:30am 24.1 20.1 8.9 38 8.3 NNE 20 30 11 16 1021.6 1020.8 0.0
25/11:00am 23.7 19.9 9.7 41 7.7 NE 20 32 11 17 1022.2 1021.5 0.0
25/10:30am 22.8 18.6 9.9 44 7.1 NNE 22 32 12 17 1022.8 1022.1 0.0
25/10:00am 21.0 15.9 9.3 47 6.3 NNE 26 33 14 18 1023.0 1022.3 0.0
25/09:30am 22.6 18.1 10.1 45 6.9 NE 24 39 13 21 1023.3 1022.6 0.0
25/09:00am 21.1 15.8 9.7 48 6.2 NE 28 39 15 21 1023.4 1022.7 0.0
25/08:30am 19.2 13.9 9.7 54 5.1 NNE 28 35 15 19 1023.2 1022.5 0.0
25/08:00am 19.6 14.1 10.6 56 4.9 NNE 30 37 16 20 1023.0 1022.3 0.0
25/07:30am 18.1 14.6 10.2 60 4.3 NNE 19 28 10 15 1022.9 1022.2 0.0
25/07:00am 17.2 14.0 10.1 63 3.8 NE 17 24 9 13 1022.4 1021.7 0.0
25/06:30am 16.4 14.0 10.0 66 3.4 NNE 13 19 7 10 1022.0 1021.3 0.0
25/06:00am 15.9 13.0 9.8 67 3.2 NNE 15 20 8 11 1021.6 1020.8 0.0
25/05:30am 15.7 12.5 9.8 68 3.1 NE 17 22 9 12 1021.5 1020.7 0.0
25/05:00am 15.9 12.0 9.6 66 3.3 NNE 20 28 11 15 1021.0 1020.2 0.0
25/04:30am 16.3 12.4 9.5 64 3.6 NNE 20 28 11 15 1021.0 1020.2 0.0
25/04:00am 16.8 12.5 9.5 62 3.9 NNE 22 30 12 16 1020.8 1020.0 0.0
25/03:30am 17.2 12.2 9.4 60 4.1 NNE 26 32 14 17 1020.6 1019.8 0.0
25/03:00am 17.4 12.8 9.6 60 4.1 NNE 24 39 13 21 1020.6 1019.8 0.0
25/02:30am 17.8 12.8 9.4 58 4.5 NNE 26 35 14 19 1020.4 1019.7 0.0
25/02:00am 18.4 12.5 9.2 55 4.9 NNE 30 39 16 21 1020.2 1019.5 0.0
25/01:30am 18.8 12.4 8.5 51 5.4 NNE 32 41 17 22 1020.2 1019.5 0.0
25/01:00am 19.2 13.4 7.9 48 5.9 NNE 28 37 15 20 1020.3 1019.6 0.0
25/12:30am 19.3 15.0 6.8 44 6.4 NE 19 24 10 13 1020.4 1019.7 0.0
25/12:00am 16.4 12.5 0.9 35 6.9 ENE 11 15 6 8 1020.6 1019.8 0.0
 
Date/Time
EST
Temp
°C
App
Temp
°C
Dew
Point
°C
Rel
Hum
%
Delta-T
°C
Wind Press
QNH
hPa
Press
MSL
hPa
Rain since
9am
mm
Dir  Spd
km/h
Gust
km/h
Spd
kts
Gust
kts
24/11:30pm 15.2 11.2 -2.2 30 7.1 N 9 11 5 6 1020.2 1019.5 0.0
24/11:00pm 15.0 11.4 -2.4 30 7.1 NE 7 13 4 7 1020.0 1019.3 0.0
24/10:30pm 17.1 13.1 -2.0 27 8.0 SSW 9 11 5 6 1019.9 1019.2 0.0
24/10:00pm 16.9 13.2 -3.2 25 8.2 S 7 11 4 6 1019.8 1019.1 0.0
24/09:30pm 19.1 15.1 -1.9 24 9.0 SSE 9 11 5 6 1019.7 1019.0 0.0
24/09:00pm 19.0 14.9 -3.2 22 9.2 SSE 9 11 5 6 1019.7 1019.0 0.0
24/08:30pm 17.7 13.5 -3.7 23 8.7 E 9 9 5 5 1019.5 1018.8 0.0
24/08:00pm 21.3 16.0 -4.0 18 10.6 S 15 17 8 9 1019.1 1018.4 0.0
24/07:30pm 19.0 14.7 -5.1 19 9.7 SSE 9 17 5 9 1018.8 1018.0 0.0
24/07:00pm 21.9 17.5 -5.9 15 11.3 SSE 9 11 5 6 1018.3 1017.5 0.0
24/06:30pm 22.5 18.7 -5.4 15 11.5 SE 6 9 3 5 1018.0 1017.2 0.0
24/06:00pm 24.1 19.3 -6.0 13 12.4 SSE 11 13 6 7 1017.8 1017.0 0.0
24/05:30pm 26.7 21.6 -5.0 12 13.7 S 13 17 7 9 1017.6 1016.8 0.0
24/05:00pm 28.1 23.1 -3.9 12 14.2 SSW 13 17 7 9 1017.4 1016.6 0.0
24/04:30pm 28.6 23.9 -4.7 11 14.7 SSW 11 19 6 10 1017.3 1016.5 0.0
24/04:00pm 28.6 23.9 -4.7 11 14.7 E 11 15 6 8 1017.3 1016.5 0.0
24/03:30pm 29.1 24.1 -4.3 11 14.9 S 13 19 7 10 1017.4 1016.6 0.0
24/03:00pm 28.7 24.9 -3.5 12 14.5 E 7 15 4 8 1017.6 1016.8 0.0
24/02:30pm 29.1 24.2 -3.2 12 14.7 SW 13 22 7 12 1018.0 1017.2 0.0
24/02:00pm 29.4 25.7 -2.9 12 14.8 SSW 7 17 4 9 1018.5 1017.7 0.0
24/01:30pm 28.8 24.0 -2.3 13 14.3 WNW 13 20 7 11 1019.0 1018.2 0.0
24/01:00pm 28.4 24.4 -2.6 13 14.1 WNW 9 20 5 11 1019.4 1018.7 0.0
24/12:30pm 27.9 24.2 -3.0 13 14.0 NW 7 15 4 8 1019.9 1019.2 0.0
24/12:00pm 27.0 21.9 -1.8 15 13.2 N 15 20 8 11 1020.4 1019.7 0.0
24/11:30am 27.7 24.3 -0.4 16 13.3 W 7 17 4 9 1021.1 1020.3 0.0
24/11:00am 26.5 22.9 0.3 18 12.4 ENE 9 17 5 9 1021.7 1020.9 0.0
24/10:30am 26.0 22.4 2.7 22 11.5 N 11 19 6 10 1022.0 1021.3 0.0
24/10:00am 24.2 20.4 1.8 23 10.7 N 11 17 6 9 1022.5 1021.8 0.0
24/09:30am 23.3 19.9 1.6 24 10.3 NNE 9 13 5 7 1022.6 1021.9 0.0
24/09:00am 22.2 19.0 3.3 29 9.2 NNE 9 13 5 7 1022.6 1021.9 0.0
24/08:30am 20.6 18.8 3.3 32 8.3 N 2 9 1 5 1022.5 1021.8 0.0
24/08:00am 18.3 15.2 1.3 32 7.7 N 7 9 4 5 1022.3 1021.6 0.0
24/07:30am 15.4 12.0 -2.1 30 7.2 NE 6 11 3 6 1022.0 1021.3 0.0
24/07:00am 11.2 8.9 -2.2 39 5.3 CALM 0 0 0 0 1021.8 1021.0 0.0
24/06:30am 7.4 4.1 -1.3 54 3.4 NNE 6 7 3 4 1021.3 1020.5 0.0
24/06:00am 5.2 2.7 -3.8 52 3.2 CALM 0 2 0 1 1021.1 1020.3 0.0
24/05:30am 6.0 1.8 -3.9 49 3.5 WNW 9 9 5 5 1020.8 1020.0 0.0
24/05:00am 6.3 2.8 -2.8 52 3.3 WNW 6 7 3 4 1020.3 1019.6 0.0
24/04:30am 5.4 1.6 -3.9 51 3.3 NNW 7 9 4 5 1020.0 1019.3 0.0
24/04:00am 8.1 5.3 -3.4 44 4.2 N 2 6 1 3 1019.7 1019.0 0.0
24/03:30am 7.9 4.3 -3.9 43 4.3 N 6 9 3 5 1019.7 1019.0 0.0
24/03:00am 8.0 5.6 -3.5 44 4.2 CALM 0 0 0 0 1019.9 1019.2 0.0
24/02:30am 8.0 4.2 -5.1 39 4.6 NNW 6 7 3 4 1020.3 1019.6 0.0
24/02:00am 9.4 5.5 -4.5 37 5.1 N 7 7 4 4 1020.7 1019.9 0.0
24/01:30am 9.5 7.0 -4.1 38 5.0 CALM 0 0 0 0 1021.0 1020.2 0.0
24/01:00am 8.8 6.2 -4.7 38 4.9 CALM 0 0 0 0 1021.5 1020.7 0.0
24/12:30am 10.2 6.5 -4.9 34 5.5 NNW 6 7 3 4 1021.6 1020.8 0.0
24/12:00am 11.2 8.6 -4.5 33 5.8 CALM 0 0 0 0 1021.9 1021.2 0.0
 
Date/Time
EST
Temp
°C
App
Temp
°C
Dew
Point
°C
Rel
Hum
%
Delta-T
°C
Wind Press
QNH
hPa
Press
MSL
hPa
Rain since
9am
mm
Dir  Spd
km/h
Gust
km/h
Spd
kts
Gust
kts
23/11:30pm 12.3 8.4 -4.3 31 6.3 WSW 7 9 4 5 1021.9 1021.2 0.0
23/11:00pm 12.5 8.7 -4.1 31 6.3 NW 7 9 4 5 1022.1 1021.4 0.0

Other Formats:

Comma delimited format used in spreadsheet applications
http://www.bom.gov.au/fwo/IDQ60801/IDQ60801.94515.axf

JavaScript Object Notation format (JSON) in row-major order
http://www.bom.gov.au/fwo/IDQ60801/IDQ60801.94515.json